PIA782 CYYZ-OPIS
Flight info
| Callsign | PIA782 |
|---|---|
| Flight time | N/A |
| Altitude | 33000 |
| Route | SEDOG6 BOBSU DCT MT DCT NOWAA DCT LOPVI/N0490F350 DCT MIBNO/M084F350 DCT EMBOK DCT 68N050W 71N040W 75N020W/M083F370 76N000E/N0488F370 76N020E DCT ADEMA/K0904F370 M168 LAGOM/K0911F390 M168 EDETO W332 DZG M168 REMOL/K0898F410 M168 TIMKA P178 SMK L139 POMIR G500 FIRUZ/N0483F410 P500 MOTMO/N0483F400 P500 GERRY/N0483F410 P500 ATROL/N0483F400 P500 PS/N0484F410 J143 KALMI |
| Aircraft | B772/H-SDE2E3FGHIJ5LORVWXY/LB1D1 |
Departure
| Time | N/A |
|---|---|
| Airport | Toronto Pearson International Airport (CYYZ) |
Arrival
| Time | 2026-05-09 03:40 |
|---|---|
| Airport | Islamabad International Airport (OPIS) |
| Time | Latitude | Longitude | Altitude | Speed | Heading |
|---|---|---|---|---|---|
| 2026-05-09 02:45 | 39.43154 | 71.37190 | 39252 ft | 507 kts | 170° |
| 2026-05-09 02:46 | 39.36271 | 71.39333 | 39255 ft | 508 kts | 171° |
| 2026-05-09 02:46 | 39.29435 | 71.41453 | 39277 ft | 509 kts | 171° |
| 2026-05-09 02:47 | 39.22537 | 71.43593 | 39278 ft | 511 kts | 171° |
| 2026-05-09 02:47 | 39.15612 | 71.45735 | 39281 ft | 512 kts | 171° |
| 2026-05-09 02:48 | 39.08673 | 71.47878 | 39293 ft | 513 kts | 171° |
| 2026-05-09 02:48 | 39.01777 | 71.50003 | 39304 ft | 511 kts | 171° |
| 2026-05-09 02:49 | 38.94882 | 71.52124 | 39306 ft | 508 kts | 171° |
| 2026-05-09 02:49 | 38.88022 | 71.54228 | 39317 ft | 506 kts | 171° |
| 2026-05-09 02:50 | 38.81171 | 71.56325 | 39337 ft | 507 kts | 171° |
| 2026-05-09 02:50 | 38.74339 | 71.58412 | 39350 ft | 509 kts | 171° |
| 2026-05-09 02:51 | 38.67433 | 71.60519 | 39338 ft | 512 kts | 171° |
| 2026-05-09 02:51 | 38.60474 | 71.62576 | 39331 ft | 512 kts | 174° |
| 2026-05-09 02:52 | 38.53436 | 71.63443 | 39327 ft | 505 kts | 186° |
| 2026-05-09 02:52 | 38.46452 | 71.63360 | 39341 ft | 507 kts | 186° |
| 2026-05-09 02:53 | 38.39378 | 71.63295 | 39337 ft | 509 kts | 186° |
| 2026-05-09 02:53 | 38.32299 | 71.63290 | 39312 ft | 508 kts | 185° |
| 2026-05-09 02:54 | 38.25249 | 71.63300 | 39312 ft | 506 kts | 185° |
| 2026-05-09 02:54 | 38.18262 | 71.63299 | 39339 ft | 508 kts | 186° |
| 2026-05-09 02:55 | 38.11169 | 71.63291 | 39335 ft | 511 kts | 186° |
| 2026-05-09 02:55 | 38.04033 | 71.63273 | 39325 ft | 513 kts | 186° |
| 2026-05-09 02:56 | 37.96942 | 71.63255 | 39319 ft | 512 kts | 186° |
| 2026-05-09 02:56 | 37.89817 | 71.63241 | 39323 ft | 512 kts | 185° |
| 2026-05-09 02:57 | 37.82684 | 71.63229 | 39323 ft | 512 kts | 186° |
| 2026-05-09 02:57 | 37.75568 | 71.63216 | 39341 ft | 511 kts | 186° |
| 2026-05-09 02:58 | 37.68513 | 71.63199 | 39331 ft | 510 kts | 186° |
| 2026-05-09 02:58 | 37.61423 | 71.63184 | 39349 ft | 509 kts | 186° |
| 2026-05-09 02:59 | 37.54345 | 71.63171 | 39347 ft | 509 kts | 186° |
| 2026-05-09 02:59 | 37.47255 | 71.63155 | 39346 ft | 509 kts | 186° |
| 2026-05-09 03:00 | 37.40162 | 71.63143 | 39347 ft | 510 kts | 186° |
| 2026-05-09 03:00 | 37.33115 | 71.63128 | 39328 ft | 509 kts | 186° |
| 2026-05-09 03:01 | 37.26043 | 71.63115 | 39349 ft | 508 kts | 186° |
| 2026-05-09 03:01 | 37.18961 | 71.63102 | 39362 ft | 510 kts | 186° |
| 2026-05-09 03:02 | 37.11888 | 71.63085 | 39360 ft | 513 kts | 186° |
| 2026-05-09 03:02 | 37.04728 | 71.63070 | 39363 ft | 516 kts | 186° |
| 2026-05-09 03:03 | 36.97526 | 71.63061 | 39478 ft | 521 kts | 186° |
| 2026-05-09 03:03 | 36.93894 | 71.63057 | 39333 ft | 519 kts | 186° |
| 2026-05-09 03:03 | 36.90314 | 71.63052 | 39393 ft | 512 kts | 186° |
| 2026-05-09 03:04 | 36.83257 | 71.63037 | 39337 ft | 511 kts | 187° |
| 2026-05-09 03:04 | 36.76131 | 71.63013 | 39335 ft | 515 kts | 187° |
| 2026-05-09 03:05 | 36.68920 | 71.63000 | 39362 ft | 521 kts | 187° |
| 2026-05-09 03:05 | 36.61638 | 71.63044 | 39361 ft | 526 kts | 186° |
| 2026-05-09 03:06 | 36.54358 | 71.63185 | 39373 ft | 527 kts | 186° |
| 2026-05-09 03:06 | 36.47087 | 71.63224 | 39378 ft | 517 kts | 189° |
| 2026-05-09 03:07 | 36.40002 | 71.62170 | 39340 ft | 512 kts | 197° |
| 2026-05-09 03:07 | 36.33059 | 71.60751 | 39332 ft | 517 kts | 197° |
| 2026-05-09 03:08 | 36.25981 | 71.59419 | 39333 ft | 519 kts | 194° |
| 2026-05-09 03:08 | 36.22330 | 71.59250 | 39321 ft | 532 kts | 182° |
| 2026-05-09 03:08 | 36.18647 | 71.59951 | 39312 ft | 540 kts | 171° |
| 2026-05-09 03:08 | 36.15073 | 71.61453 | 39321 ft | 547 kts | 159° |
| 2026-05-09 03:09 | 36.11712 | 71.63683 | 39272 ft | 547 kts | 153° |
| 2026-05-09 03:09 | 36.05218 | 71.68461 | 39281 ft | 544 kts | 153° |
| 2026-05-09 03:10 | 35.98679 | 71.73081 | 39251 ft | 547 kts | 154° |
| 2026-05-09 03:10 | 35.91928 | 71.77376 | 39193 ft | 542 kts | 165° |
| 2026-05-09 03:11 | 35.84689 | 71.79186 | 39225 ft | 525 kts | 184° |
| 2026-05-09 03:11 | 35.77513 | 71.78539 | 39199 ft | 516 kts | 195° |
| 2026-05-09 03:12 | 35.70412 | 71.77322 | 39174 ft | 522 kts | 195° |
| 2026-05-09 03:12 | 35.63165 | 71.76135 | 39103 ft | 528 kts | 194° |
| 2026-05-09 03:13 | 35.52302 | 71.74501 | 39129 ft | 522 kts | 194° |
| 2026-05-09 03:13 | 35.45107 | 71.73428 | 39145 ft | 527 kts | 194° |
| 2026-05-09 03:14 | 35.37782 | 71.72327 | 39080 ft | 530 kts | 194° |
| 2026-05-09 03:14 | 35.30538 | 71.71248 | 39058 ft | 520 kts | 194° |
| 2026-05-09 03:15 | 35.23375 | 71.70182 | 39027 ft | 519 kts | 195° |
| 2026-05-09 03:15 | 35.16231 | 71.69106 | 39041 ft | 523 kts | 195° |
| 2026-05-09 03:16 | 35.08976 | 71.68019 | 39000 ft | 527 kts | 195° |
| 2026-05-09 03:16 | 35.01687 | 71.66937 | 38997 ft | 528 kts | 194° |
| 2026-05-09 03:17 | 34.94393 | 71.65859 | 38982 ft | 527 kts | 194° |
| 2026-05-09 03:17 | 34.87175 | 71.64792 | 38963 ft | 525 kts | 194° |
| 2026-05-09 03:18 | 34.79924 | 71.63720 | 38945 ft | 524 kts | 194° |
| 2026-05-09 03:18 | 34.72692 | 71.62652 | 38953 ft | 523 kts | 195° |
| 2026-05-09 03:19 | 34.65464 | 71.61586 | 38941 ft | 523 kts | 195° |
| 2026-05-09 03:19 | 34.58287 | 71.60529 | 38940 ft | 524 kts | 195° |
| 2026-05-09 03:20 | 34.51106 | 71.59480 | 38458 ft | 513 kts | 195° |
| 2026-05-09 03:20 | 34.47548 | 71.58958 | 37531 ft | 516 kts | 194° |
| 2026-05-09 03:20 | 34.43962 | 71.58426 | 36503 ft | 522 kts | 194° |
| 2026-05-09 03:21 | 34.40347 | 71.57890 | 35527 ft | 526 kts | 193° |
| 2026-05-09 03:21 | 34.36700 | 71.57353 | 34573 ft | 529 kts | 192° |
| 2026-05-09 03:21 | 34.33091 | 71.56825 | 33587 ft | 531 kts | 192° |
| 2026-05-09 03:21 | 34.29414 | 71.56290 | 32507 ft | 533 kts | 191° |
| 2026-05-09 03:22 | 34.25728 | 71.55755 | 31447 ft | 534 kts | 190° |
| 2026-05-09 03:22 | 34.22036 | 71.55219 | 30410 ft | 535 kts | 189° |
| 2026-05-09 03:22 | 34.18351 | 71.54684 | 29468 ft | 532 kts | 189° |
| 2026-05-09 03:22 | 34.14705 | 71.54156 | 28713 ft | 523 kts | 189° |
| 2026-05-09 03:23 | 34.11123 | 71.53636 | 28052 ft | 515 kts | 189° |
| 2026-05-09 03:23 | 34.07593 | 71.53123 | 27397 ft | 507 kts | 189° |
| 2026-05-09 03:23 | 34.04158 | 71.52624 | 26710 ft | 501 kts | 188° |
| 2026-05-09 03:23 | 34.00714 | 71.52417 | 25884 ft | 497 kts | 177° |
| 2026-05-09 03:24 | 33.97313 | 71.53098 | 25129 ft | 494 kts | 164° |
| 2026-05-09 03:24 | 33.94109 | 71.54512 | 24506 ft | 487 kts | 154° |
| 2026-05-09 03:24 | 33.91231 | 71.56570 | 23873 ft | 476 kts | 144° |
| 2026-05-09 03:24 | 33.88498 | 71.58793 | 23154 ft | 473 kts | 144° |
| 2026-05-09 03:25 | 33.85780 | 71.60994 | 22447 ft | 467 kts | 145° |
| 2026-05-09 03:25 | 33.83091 | 71.63130 | 21823 ft | 461 kts | 146° |
| 2026-05-09 03:25 | 33.80421 | 71.65215 | 21215 ft | 454 kts | 146° |
| 2026-05-09 03:25 | 33.77813 | 71.67235 | 20607 ft | 449 kts | 146° |
| 2026-05-09 03:26 | 33.75202 | 71.69253 | 20007 ft | 445 kts | 146° |
| 2026-05-09 03:26 | 33.72609 | 71.71244 | 19460 ft | 440 kts | 147° |
| 2026-05-09 03:26 | 33.70042 | 71.73206 | 18932 ft | 435 kts | 147° |
| 2026-05-09 03:26 | 33.67506 | 71.75141 | 18434 ft | 430 kts | 147° |
| 2026-05-09 03:27 | 33.65069 | 71.77000 | 17412 ft | 406 kts | 147° |
| 2026-05-09 03:27 | 33.62713 | 71.78800 | 15979 ft | 398 kts | 147° |
| 2026-05-09 03:27 | 33.60429 | 71.80544 | 14603 ft | 392 kts | 147° |
| 2026-05-09 03:27 | 33.58140 | 71.82290 | 13290 ft | 386 kts | 147° |
| 2026-05-09 03:28 | 33.56123 | 71.84151 | 12871 ft | 352 kts | 131° |
| 2026-05-09 03:28 | 33.54879 | 71.86559 | 12414 ft | 331 kts | 110° |
| 2026-05-09 03:28 | 33.54233 | 71.89155 | 11953 ft | 324 kts | 99° |
| 2026-05-09 03:28 | 33.54078 | 71.91872 | 11501 ft | 335 kts | 85° |
| 2026-05-09 03:29 | 33.54279 | 71.94738 | 11007 ft | 355 kts | 83° |
| 2026-05-09 03:29 | 33.54490 | 71.97659 | 10803 ft | 351 kts | 84° |
| 2026-05-09 03:29 | 33.54668 | 72.00463 | 10637 ft | 323 kts | 84° |
| 2026-05-09 03:29 | 33.54810 | 72.03023 | 10507 ft | 292 kts | 85° |
| 2026-05-09 03:30 | 33.54842 | 72.05335 | 10398 ft | 265 kts | 88° |
| 2026-05-09 03:30 | 33.54833 | 72.07506 | 10311 ft | 265 kts | 88° |
| 2026-05-09 03:30 | 33.54822 | 72.09799 | 10240 ft | 285 kts | 88° |
| 2026-05-09 03:30 | 33.54810 | 72.12209 | 10130 ft | 289 kts | 88° |
| 2026-05-09 03:31 | 33.54799 | 72.14625 | 9869 ft | 292 kts | 88° |
| 2026-05-09 03:31 | 33.54791 | 72.17070 | 9388 ft | 293 kts | 88° |
| 2026-05-09 03:31 | 33.54784 | 72.19457 | 8935 ft | 287 kts | 88° |
| 2026-05-09 03:31 | 33.54780 | 72.21824 | 8566 ft | 283 kts | 88° |
| 2026-05-09 03:32 | 33.54773 | 72.24182 | 8209 ft | 283 kts | 88° |
| 2026-05-09 03:32 | 33.54766 | 72.26546 | 7850 ft | 283 kts | 88° |
| 2026-05-09 03:32 | 33.54759 | 72.28897 | 7499 ft | 282 kts | 89° |
| 2026-05-09 03:32 | 33.54754 | 72.31238 | 7148 ft | 280 kts | 89° |
| 2026-05-09 03:33 | 33.54749 | 72.33567 | 6809 ft | 279 kts | 89° |
| 2026-05-09 03:33 | 33.54742 | 72.35882 | 6466 ft | 277 kts | 89° |
| 2026-05-09 03:33 | 33.54735 | 72.38179 | 6117 ft | 275 kts | 89° |
| 2026-05-09 03:33 | 33.54727 | 72.40430 | 5752 ft | 273 kts | 89° |
| 2026-05-09 03:34 | 33.54805 | 72.42691 | 5386 ft | 270 kts | 80° |
| 2026-05-09 03:34 | 33.55175 | 72.44889 | 5042 ft | 268 kts | 75° |
| 2026-05-09 03:34 | 33.55616 | 72.47058 | 4697 ft | 267 kts | 75° |
| 2026-05-09 03:34 | 33.56052 | 72.49221 | 4330 ft | 266 kts | 76° |
| 2026-05-09 03:35 | 33.56470 | 72.51369 | 3979 ft | 263 kts | 76° |
| 2026-05-09 03:35 | 33.56871 | 72.53497 | 3621 ft | 261 kts | 77° |
| 2026-05-09 03:35 | 33.57251 | 72.55552 | 3304 ft | 249 kts | 77° |
| 2026-05-09 03:35 | 33.57608 | 72.57499 | 3093 ft | 227 kts | 77° |
| 2026-05-09 03:36 | 33.57928 | 72.59250 | 3018 ft | 205 kts | 77° |
| 2026-05-09 03:36 | 33.58037 | 72.60891 | 3045 ft | 194 kts | 95° |
| 2026-05-09 03:36 | 33.57895 | 72.62499 | 3056 ft | 195 kts | 97° |
| 2026-05-09 03:36 | 33.57683 | 72.64106 | 3032 ft | 194 kts | 100° |
| 2026-05-09 03:37 | 33.57443 | 72.65669 | 3028 ft | 192 kts | 101° |
| 2026-05-09 03:37 | 33.57198 | 72.67238 | 3030 ft | 191 kts | 101° |
| 2026-05-09 03:37 | 33.56954 | 72.68797 | 3033 ft | 190 kts | 101° |
| 2026-05-09 03:37 | 33.56711 | 72.70357 | 3036 ft | 190 kts | 101° |
| 2026-05-09 03:38 | 33.56467 | 72.71918 | 3050 ft | 191 kts | 101° |
| 2026-05-09 03:38 | 33.56221 | 72.73501 | 2932 ft | 198 kts | 101° |
| 2026-05-09 03:38 | 33.55968 | 72.75124 | 2680 ft | 192 kts | 101° |
| 2026-05-09 03:38 | 33.55737 | 72.76602 | 2428 ft | 168 kts | 101° |
| 2026-05-09 03:39 | 33.55538 | 72.77880 | 2241 ft | 149 kts | 101° |
| 2026-05-09 03:39 | 33.55356 | 72.79048 | 2070 ft | 139 kts | 101° |
| 2026-05-09 03:39 | 33.55179 | 72.80183 | 1892 ft | 137 kts | 101° |
| 2026-05-09 03:39 | 33.55012 | 72.81259 | 1767 ft | 123 kts | 101° |
| 2026-05-09 03:40 | 33.54876 | 72.82121 | 1767 ft | 81 kts | 101° |
| 2026-05-09 03:40 | 33.54805 | 72.82572 | 1766 ft | 37 kts | 101° |
| 2026-05-09 03:40 | 33.54765 | 72.82852 | 1768 ft | 31 kts | 93° |
| 2026-05-09 03:40 | 33.54794 | 72.83072 | 1770 ft | 18 kts | 72° |
| 2026-05-09 03:41 | 33.54832 | 72.83208 | 1772 ft | 18 kts | 71° |
| 2026-05-09 03:41 | 33.54866 | 72.83348 | 1773 ft | 18 kts | 80° |
| 2026-05-09 03:41 | 33.54922 | 72.83463 | 1771 ft | 17 kts | 16° |
| 2026-05-09 03:41 | 33.55028 | 72.83488 | 1776 ft | 15 kts | 11° |
| 2026-05-09 03:42 | 33.55134 | 72.83513 | 1776 ft | 15 kts | 11° |
| 2026-05-09 03:42 | 33.55239 | 72.83537 | 1777 ft | 15 kts | 11° |
| 2026-05-09 03:42 | 33.55333 | 72.83506 | 1775 ft | 16 kts | 295° |
| 2026-05-09 03:42 | 33.55361 | 72.83433 | 1777 ft | 7 kts | 340° |
| 2026-05-09 03:43 | 33.55406 | 72.83438 | 1776 ft | 5 kts | 8° |
| 2026-05-09 03:43 | 33.55422 | 72.83442 | 1776 ft | 2 kts | 10° |
| 2026-05-09 03:43 | 33.55426 | 72.83442 | 1776 ft | 0 kts | 10° |